sensor_id;sensor_type;location;lat;lon;timestamp;temperature;humidity
6373;DHT22;3219;51.362;7.074;2023-04-06T00:02:18;3.60;99.90
6373;DHT22;3219;51.362;7.074;2023-04-06T00:04:45;3.60;99.90
6373;DHT22;3219;51.362;7.074;2023-04-06T00:07:12;3.60;99.90
6373;DHT22;3219;51.362;7.074;2023-04-06T00:09:39;3.60;99.90
6373;DHT22;3219;51.362;7.074;2023-04-06T00:12:07;3.60;99.90
6373;DHT22;3219;51.362;7.074;2023-04-06T00:14:34;3.60;99.90
6373;DHT22;3219;51.362;7.074;2023-04-06T00:17:01;3.70;99.90
6373;DHT22;3219;51.362;7.074;2023-04-06T00:19:27;3.70;99.90
6373;DHT22;3219;51.362;7.074;2023-04-06T00:21:54;3.70;99.90
6373;DHT22;3219;51.362;7.074;2023-04-06T00:24:21;3.80;99.90
6373;DHT22;3219;51.362;7.074;2023-04-06T00:26:48;3.80;99.90
6373;DHT22;3219;51.362;7.074;2023-04-06T00:29:16;3.80;99.90
6373;DHT22;3219;51.362;7.074;2023-04-06T00:31:43;3.80;99.90
6373;DHT22;3219;51.362;7.074;2023-04-06T00:34:10;3.90;99.90
6373;DHT22;3219;51.362;7.074;2023-04-06T00:36:36;3.90;99.90
6373;DHT22;3219;51.362;7.074;2023-04-06T00:39:03;3.90;99.90
6373;DHT22;3219;51.362;7.074;2023-04-06T00:41:30;3.90;99.90
6373;DHT22;3219;51.362;7.074;2023-04-06T00:43:57;3.90;99.90
6373;DHT22;3219;51.362;7.074;2023-04-06T00:46:25;4.00;99.90
6373;DHT22;3219;51.362;7.074;2023-04-06T00:48:52;4.00;99.90
6373;DHT22;3219;51.362;7.074;2023-04-06T00:51:19;4.00;99.90
6373;DHT22;3219;51.362;7.074;2023-04-06T00:53:46;3.90;99.90
6373;DHT22;3219;51.362;7.074;2023-04-06T00:56:13;4.00;99.90
6373;DHT22;3219;51.362;7.074;2023-04-06T00:58:40;3.90;99.90
6373;DHT22;3219;51.362;7.074;2023-04-06T01:01:07;3.90;99.90
6373;DHT22;3219;51.362;7.074;2023-04-06T01:03:35;3.90;99.90
6373;DHT22;3219;51.362;7.074;2023-04-06T01:06:02;3.80;99.90
6373;DHT22;3219;51.362;7.074;2023-04-06T01:08:29;3.80;99.90
6373;DHT22;3219;51.362;7.074;2023-04-06T01:10:56;3.80;99.90
6373;DHT22;3219;51.362;7.074;2023-04-06T01:13:22;3.70;99.90
6373;DHT22;3219;51.362;7.074;2023-04-06T01:15:49;3.70;99.90
6373;DHT22;3219;51.362;7.074;2023-04-06T01:18:16;3.70;99.90
6373;DHT22;3219;51.362;7.074;2023-04-06T01:20:44;3.60;99.90
6373;DHT22;3219;51.362;7.074;2023-04-06T01:23:12;3.60;99.90
6373;DHT22;3219;51.362;7.074;2023-04-06T01:25:39;3.60;99.90
6373;DHT22;3219;51.362;7.074;2023-04-06T01:28:06;3.50;99.90
6373;DHT22;3219;51.362;7.074;2023-04-06T01:30:33;3.50;99.90
6373;DHT22;3219;51.362;7.074;2023-04-06T01:32:59;3.40;99.90
6373;DHT22;3219;51.362;7.074;2023-04-06T01:35:27;3.40;99.90
6373;DHT22;3219;51.362;7.074;2023-04-06T01:37:54;3.40;99.90
6373;DHT22;3219;51.362;7.074;2023-04-06T01:40:22;3.40;99.90
6373;DHT22;3219;51.362;7.074;2023-04-06T01:42:49;3.30;99.90
6373;DHT22;3219;51.362;7.074;2023-04-06T01:45:16;3.30;99.90
6373;DHT22;3219;51.362;7.074;2023-04-06T01:47:43;3.30;99.90
6373;DHT22;3219;51.362;7.074;2023-04-06T01:50:10;3.20;99.90
6373;DHT22;3219;51.362;7.074;2023-04-06T01:52:37;3.20;99.90
6373;DHT22;3219;51.362;7.074;2023-04-06T01:55:04;3.20;99.90
6373;DHT22;3219;51.362;7.074;2023-04-06T01:57:33;3.20;99.90
6373;DHT22;3219;51.362;7.074;2023-04-06T02:00:00;3.20;99.90
6373;DHT22;3219;51.362;7.074;2023-04-06T02:02:27;3.20;99.90
6373;DHT22;3219;51.362;7.074;2023-04-06T02:04:53;3.20;99.90
6373;DHT22;3219;51.362;7.074;2023-04-06T02:07:21;3.30;99.90
6373;DHT22;3219;51.362;7.074;2023-04-06T02:09:48;3.30;99.90
6373;DHT22;3219;51.362;7.074;2023-04-06T02:12:15;3.30;99.90
6373;DHT22;3219;51.362;7.074;2023-04-06T02:14:43;3.30;99.90
6373;DHT22;3219;51.362;7.074;2023-04-06T02:17:10;3.30;99.90
6373;DHT22;3219;51.362;7.074;2023-04-06T02:19:36;3.40;99.90
6373;DHT22;3219;51.362;7.074;2023-04-06T02:22:03;3.40;99.90
6373;DHT22;3219;51.362;7.074;2023-04-06T02:24:30;3.30;99.90
6373;DHT22;3219;51.362;7.074;2023-04-06T02:26:57;3.30;99.90
6373;DHT22;3219;51.362;7.074;2023-04-06T02:29:24;3.30;99.90
6373;DHT22;3219;51.362;7.074;2023-04-06T02:31:52;3.30;99.90
6373;DHT22;3219;51.362;7.074;2023-04-06T02:34:19;3.20;99.90
6373;DHT22;3219;51.362;7.074;2023-04-06T02:36:47;3.30;99.90
6373;DHT22;3219;51.362;7.074;2023-04-06T02:39:14;3.30;99.90
6373;DHT22;3219;51.362;7.074;2023-04-06T02:41:41;3.20;99.90
6373;DHT22;3219;51.362;7.074;2023-04-06T02:44:08;3.20;99.90
6373;DHT22;3219;51.362;7.074;2023-04-06T02:46:35;3.20;99.90
6373;DHT22;3219;51.362;7.074;2023-04-06T02:49:03;3.20;99.90
6373;DHT22;3219;51.362;7.074;2023-04-06T02:51:30;3.20;99.90
6373;DHT22;3219;51.362;7.074;2023-04-06T02:53:57;3.30;99.90
6373;DHT22;3219;51.362;7.074;2023-04-06T02:56:23;3.30;99.90
6373;DHT22;3219;51.362;7.074;2023-04-06T02:58:51;3.30;99.90
6373;DHT22;3219;51.362;7.074;2023-04-06T03:01:18;3.30;99.90
6373;DHT22;3219;51.362;7.074;2023-04-06T03:03:45;3.30;99.90
6373;DHT22;3219;51.362;7.074;2023-04-06T03:06:13;3.30;99.90
6373;DHT22;3219;51.362;7.074;2023-04-06T03:08:40;3.40;99.90
6373;DHT22;3219;51.362;7.074;2023-04-06T03:11:07;3.40;99.90
6373;DHT22;3219;51.362;7.074;2023-04-06T03:13:34;3.40;99.90
6373;DHT22;3219;51.362;7.074;2023-04-06T03:16:00;3.30;99.90
6373;DHT22;3219;51.362;7.074;2023-04-06T03:18:27;3.40;99.90
6373;DHT22;3219;51.362;7.074;2023-04-06T03:20:54;3.30;99.90
6373;DHT22;3219;51.362;7.074;2023-04-06T03:23:22;3.30;99.90
6373;DHT22;3219;51.362;7.074;2023-04-06T03:25:49;3.30;99.90
6373;DHT22;3219;51.362;7.074;2023-04-06T03:28:16;3.30;99.90
6373;DHT22;3219;51.362;7.074;2023-04-06T03:30:42;3.40;99.90
6373;DHT22;3219;51.362;7.074;2023-04-06T03:33:10;3.40;99.90
6373;DHT22;3219;51.362;7.074;2023-04-06T03:35:37;3.40;99.90
6373;DHT22;3219;51.362;7.074;2023-04-06T03:38:04;3.40;99.90
6373;DHT22;3219;51.362;7.074;2023-04-06T03:40:32;3.40;99.90
6373;DHT22;3219;51.362;7.074;2023-04-06T03:42:59;3.40;99.90
6373;DHT22;3219;51.362;7.074;2023-04-06T03:45:25;3.40;99.90
6373;DHT22;3219;51.362;7.074;2023-04-06T03:47:52;3.40;99.90
6373;DHT22;3219;51.362;7.074;2023-04-06T03:50:19;3.40;99.90
6373;DHT22;3219;51.362;7.074;2023-04-06T03:52:46;3.40;99.90
6373;DHT22;3219;51.362;7.074;2023-04-06T03:55:12;3.40;99.90
6373;DHT22;3219;51.362;7.074;2023-04-06T03:57:41;3.40;99.90
6373;DHT22;3219;51.362;7.074;2023-04-06T04:00:09;3.40;99.90
6373;DHT22;3219;51.362;7.074;2023-04-06T04:02:35;3.50;99.90
6373;DHT22;3219;51.362;7.074;2023-04-06T04:05:03;3.50;99.90
6373;DHT22;3219;51.362;7.074;2023-04-06T04:07:30;3.50;99.90
6373;DHT22;3219;51.362;7.074;2023-04-06T04:09:56;3.50;99.90
6373;DHT22;3219;51.362;7.074;2023-04-06T04:12:23;3.50;99.90
6373;DHT22;3219;51.362;7.074;2023-04-06T04:14:51;3.50;99.90
6373;DHT22;3219;51.362;7.074;2023-04-06T04:17:19;3.50;99.90
6373;DHT22;3219;51.362;7.074;2023-04-06T04:19:46;3.50;99.90
6373;DHT22;3219;51.362;7.074;2023-04-06T04:22:13;3.50;99.90
6373;DHT22;3219;51.362;7.074;2023-04-06T04:24:39;3.50;99.90
6373;DHT22;3219;51.362;7.074;2023-04-06T04:27:06;3.50;99.90
6373;DHT22;3219;51.362;7.074;2023-04-06T04:29:33;3.50;99.90
6373;DHT22;3219;51.362;7.074;2023-04-06T04:32:01;3.50;99.90
6373;DHT22;3219;51.362;7.074;2023-04-06T04:34:28;3.40;99.90
6373;DHT22;3219;51.362;7.074;2023-04-06T04:36:55;3.40;99.90
6373;DHT22;3219;51.362;7.074;2023-04-06T04:39:22;3.40;99.90
6373;DHT22;3219;51.362;7.074;2023-04-06T04:41:48;3.40;99.90
6373;DHT22;3219;51.362;7.074;2023-04-06T04:44:15;3.40;99.90
6373;DHT22;3219;51.362;7.074;2023-04-06T04:46:42;3.40;99.90
6373;DHT22;3219;51.362;7.074;2023-04-06T04:49:10;3.40;99.90
6373;DHT22;3219;51.362;7.074;2023-04-06T04:51:37;3.40;99.90
6373;DHT22;3219;51.362;7.074;2023-04-06T04:54:03;3.40;99.90
6373;DHT22;3219;51.362;7.074;2023-04-06T04:56:30;3.40;99.90
6373;DHT22;3219;51.362;7.074;2023-04-06T04:58:57;3.40;99.90
6373;DHT22;3219;51.362;7.074;2023-04-06T05:01:24;3.40;99.90
6373;DHT22;3219;51.362;7.074;2023-04-06T05:03:51;3.30;99.90
6373;DHT22;3219;51.362;7.074;2023-04-06T05:06:19;3.40;99.90
6373;DHT22;3219;51.362;7.074;2023-04-06T05:08:45;3.40;99.90
6373;DHT22;3219;51.362;7.074;2023-04-06T05:11:12;3.40;99.90
6373;DHT22;3219;51.362;7.074;2023-04-06T05:13:39;3.50;99.90
6373;DHT22;3219;51.362;7.074;2023-04-06T05:16:06;3.50;99.90
6373;DHT22;3219;51.362;7.074;2023-04-06T05:18:33;3.60;99.90
6373;DHT22;3219;51.362;7.074;2023-04-06T05:21:00;3.70;99.90
6373;DHT22;3219;51.362;7.074;2023-04-06T05:23:28;3.80;99.90
6373;DHT22;3219;51.362;7.074;2023-04-06T05:25:55;3.90;99.90
6373;DHT22;3219;51.362;7.074;2023-04-06T05:28:22;4.00;99.90
6373;DHT22;3219;51.362;7.074;2023-04-06T05:30:49;4.10;99.90
6373;DHT22;3219;51.362;7.074;2023-04-06T05:33:16;4.40;99.90
6373;DHT22;3219;51.362;7.074;2023-04-06T05:35:42;5.10;99.20
6373;DHT22;3219;51.362;7.074;2023-04-06T05:38:10;6.10;98.20
6373;DHT22;3219;51.362;7.074;2023-04-06T05:40:38;7.00;97.10
6373;DHT22;3219;51.362;7.074;2023-04-06T05:43:06;7.80;96.20
6373;DHT22;3219;51.362;7.074;2023-04-06T05:45:33;8.70;95.10
6373;DHT22;3219;51.362;7.074;2023-04-06T05:48:00;9.40;93.60
6373;DHT22;3219;51.362;7.074;2023-04-06T05:50:27;10.20;92.90
6373;DHT22;3219;51.362;7.074;2023-04-06T05:52:54;10.90;92.00
6373;DHT22;3219;51.362;7.074;2023-04-06T05:55:21;11.70;91.30
6373;DHT22;3219;51.362;7.074;2023-04-06T05:57:49;12.40;90.30
6373;DHT22;3219;51.362;7.074;2023-04-06T06:00:16;13.00;89.60
6373;DHT22;3219;51.362;7.074;2023-04-06T06:02:43;13.70;88.10
6373;DHT22;3219;51.362;7.074;2023-04-06T06:05:10;14.20;85.60
6373;DHT22;3219;51.362;7.074;2023-04-06T06:07:37;14.50;84.00
6373;DHT22;3219;51.362;7.074;2023-04-06T06:10:04;15.00;83.60
6373;DHT22;3219;51.362;7.074;2023-04-06T06:12:31;15.50;82.30
6373;DHT22;3219;51.362;7.074;2023-04-06T06:14:59;15.80;80.40
6373;DHT22;3219;51.362;7.074;2023-04-06T06:17:26;16.10;80.40
6373;DHT22;3219;51.362;7.074;2023-04-06T06:19:52;16.50;79.30
6373;DHT22;3219;51.362;7.074;2023-04-06T06:22:20;16.90;78.20
6373;DHT22;3219;51.362;7.074;2023-04-06T06:24:47;17.20;78.90
6373;DHT22;3219;51.362;7.074;2023-04-06T06:27:15;17.50;77.60
6373;DHT22;3219;51.362;7.074;2023-04-06T06:29:42;17.90;78.40
6373;DHT22;3219;51.362;7.074;2023-04-06T06:32:10;17.90;78.20
6373;DHT22;3219;51.362;7.074;2023-04-06T06:34:37;18.40;78.40
6373;DHT22;3219;51.362;7.074;2023-04-06T06:37:05;18.60;79.40
6373;DHT22;3219;51.362;7.074;2023-04-06T06:39:32;18.80;79.40
6373;DHT22;3219;51.362;7.074;2023-04-06T06:41:59;19.00;79.20
6373;DHT22;3219;51.362;7.074;2023-04-06T06:44:26;19.30;78.40
6373;DHT22;3219;51.362;7.074;2023-04-06T06:46:53;19.00;78.10
6373;DHT22;3219;51.362;7.074;2023-04-06T06:49:21;18.60;77.50
6373;DHT22;3219;51.362;7.074;2023-04-06T06:51:48;18.50;77.30
6373;DHT22;3219;51.362;7.074;2023-04-06T06:54:15;18.00;77.20
6373;DHT22;3219;51.362;7.074;2023-04-06T06:56:42;17.90;77.70
6373;DHT22;3219;51.362;7.074;2023-04-06T06:59:09;18.30;78.80
6373;DHT22;3219;51.362;7.074;2023-04-06T07:01:36;18.70;77.50
6373;DHT22;3219;51.362;7.074;2023-04-06T07:04:03;19.40;77.70
6373;DHT22;3219;51.362;7.074;2023-04-06T07:06:31;19.50;78.10
6373;DHT22;3219;51.362;7.074;2023-04-06T07:08:58;19.70;77.20
6373;DHT22;3219;51.362;7.074;2023-04-06T07:11:25;19.80;78.30
6373;DHT22;3219;51.362;7.074;2023-04-06T07:13:52;20.00;79.80
6373;DHT22;3219;51.362;7.074;2023-04-06T07:16:18;20.40;76.30
6373;DHT22;3219;51.362;7.074;2023-04-06T07:18:45;20.50;74.50
6373;DHT22;3219;51.362;7.074;2023-04-06T07:21:12;20.50;74.40
6373;DHT22;3219;51.362;7.074;2023-04-06T07:23:41;20.40;74.20
6373;DHT22;3219;51.362;7.074;2023-04-06T07:26:08;20.40;74.00
6373;DHT22;3219;51.362;7.074;2023-04-06T07:28:34;19.90;74.40
6373;DHT22;3219;51.362;7.074;2023-04-06T07:31:01;19.50;74.00
6373;DHT22;3219;51.362;7.074;2023-04-06T07:33:28;18.70;74.30
6373;DHT22;3219;51.362;7.074;2023-04-06T07:35:55;18.30;76.70
6373;DHT22;3219;51.362;7.074;2023-04-06T07:38:23;18.70;75.30
6373;DHT22;3219;51.362;7.074;2023-04-06T07:40:52;19.30;76.00
6373;DHT22;3219;51.362;7.074;2023-04-06T07:43:18;20.60;76.10
6373;DHT22;3219;51.362;7.074;2023-04-06T07:45:45;21.30;74.40
6373;DHT22;3219;51.362;7.074;2023-04-06T07:48:12;21.90;74.30
6373;DHT22;3219;51.362;7.074;2023-04-06T07:50:39;22.00;73.50
6373;DHT22;3219;51.362;7.074;2023-04-06T07:53:06;22.10;74.30
6373;DHT22;3219;51.362;7.074;2023-04-06T07:55:33;22.10;75.00
6373;DHT22;3219;51.362;7.074;2023-04-06T07:58:01;21.50;72.20
6373;DHT22;3219;51.362;7.074;2023-04-06T08:00:28;20.90;72.60
6373;DHT22;3219;51.362;7.074;2023-04-06T08:02:55;20.70;72.80
6373;DHT22;3219;51.362;7.074;2023-04-06T08:05:22;20.90;73.20
6373;DHT22;3219;51.362;7.074;2023-04-06T08:07:48;21.40;74.10
6373;DHT22;3219;51.362;7.074;2023-04-06T08:10:15;22.00;73.20
6373;DHT22;3219;51.362;7.074;2023-04-06T08:12:42;22.10;73.50
6373;DHT22;3219;51.362;7.074;2023-04-06T08:15:11;21.50;75.20
6373;DHT22;3219;51.362;7.074;2023-04-06T08:17:37;20.70;73.80
6373;DHT22;3219;51.362;7.074;2023-04-06T08:20:05;19.50;77.10
6373;DHT22;3219;51.362;7.074;2023-04-06T08:22:32;18.30;77.90
6373;DHT22;3219;51.362;7.074;2023-04-06T08:24:58;17.10;81.80
6373;DHT22;3219;51.362;7.074;2023-04-06T08:27:25;16.10;86.50
6373;DHT22;3219;51.362;7.074;2023-04-06T08:29:52;15.10;82.30
6373;DHT22;3219;51.362;7.074;2023-04-06T08:32:20;15.20;82.90
6373;DHT22;3219;51.362;7.074;2023-04-06T08:34:47;15.10;83.20
6373;DHT22;3219;51.362;7.074;2023-04-06T08:37:14;15.10;83.70
6373;DHT22;3219;51.362;7.074;2023-04-06T08:39:41;15.20;83.80
6373;DHT22;3219;51.362;7.074;2023-04-06T08:42:12;15.00;82.80
6373;DHT22;3219;51.362;7.074;2023-04-06T08:44:42;14.80;83.50
6373;DHT22;3219;51.362;7.074;2023-04-06T08:47:09;14.60;83.40
6373;DHT22;3219;51.362;7.074;2023-04-06T08:49:38;14.40;83.50
6373;DHT22;3219;51.362;7.074;2023-04-06T08:52:06;14.30;84.20
6373;DHT22;3219;51.362;7.074;2023-04-06T08:54:33;14.40;84.70
6373;DHT22;3219;51.362;7.074;2023-04-06T08:57:00;14.40;84.50
6373;DHT22;3219;51.362;7.074;2023-04-06T08:59:28;14.50;85.60
6373;DHT22;3219;51.362;7.074;2023-04-06T09:01:55;14.50;84.00
6373;DHT22;3219;51.362;7.074;2023-04-06T09:04:22;14.60;85.10
6373;DHT22;3219;51.362;7.074;2023-04-06T09:06:51;14.80;85.80
6373;DHT22;3219;51.362;7.074;2023-04-06T09:09:18;15.00;84.70
6373;DHT22;3219;51.362;7.074;2023-04-06T09:11:46;15.10;85.70
6373;DHT22;3219;51.362;7.074;2023-04-06T09:14:14;15.00;85.40
6373;DHT22;3219;51.362;7.074;2023-04-06T09:16:44;15.10;83.20
6373;DHT22;3219;51.362;7.074;2023-04-06T09:19:12;15.20;88.60
6373;DHT22;3219;51.362;7.074;2023-04-06T09:21:39;14.80;83.00
6373;DHT22;3219;51.362;7.074;2023-04-06T09:24:08;15.00;82.20
6373;DHT22;3219;51.362;7.074;2023-04-06T09:26:44;15.00;81.90
6373;DHT22;3219;51.362;7.074;2023-04-06T09:29:22;14.90;81.00
6373;DHT22;3219;51.362;7.074;2023-04-06T09:31:52;14.80;80.90
6373;DHT22;3219;51.362;7.074;2023-04-06T09:34:22;14.80;82.10
6373;DHT22;3219;51.362;7.074;2023-04-06T09:36:49;14.70;83.00
6373;DHT22;3219;51.362;7.074;2023-04-06T09:39:20;14.70;82.10
6373;DHT22;3219;51.362;7.074;2023-04-06T09:41:51;14.60;82.80
6373;DHT22;3219;51.362;7.074;2023-04-06T09:44:18;14.60;82.70
6373;DHT22;3219;51.362;7.074;2023-04-06T09:46:46;14.60;81.90
6373;DHT22;3219;51.362;7.074;2023-04-06T09:49:13;14.60;83.20
6373;DHT22;3219;51.362;7.074;2023-04-06T09:51:43;14.60;82.90
6373;DHT22;3219;51.362;7.074;2023-04-06T09:54:15;14.60;83.30
6373;DHT22;3219;51.362;7.074;2023-04-06T09:56:49;14.50;83.70
6373;DHT22;3219;51.362;7.074;2023-04-06T09:59:20;14.60;83.80
6373;DHT22;3219;51.362;7.074;2023-04-06T10:01:51;14.70;83.50
6373;DHT22;3219;51.362;7.074;2023-04-06T10:04:28;14.80;83.40
6373;DHT22;3219;51.362;7.074;2023-04-06T10:06:59;14.80;83.90
6373;DHT22;3219;51.362;7.074;2023-04-06T10:09:29;14.90;83.40
6373;DHT22;3219;51.362;7.074;2023-04-06T10:12:03;14.90;84.20
6373;DHT22;3219;51.362;7.074;2023-04-06T10:14:30;14.80;83.50
6373;DHT22;3219;51.362;7.074;2023-04-06T10:16:58;14.80;84.50
6373;DHT22;3219;51.362;7.074;2023-04-06T10:19:29;14.80;84.20
6373;DHT22;3219;51.362;7.074;2023-04-06T10:22:00;14.50;84.90
6373;DHT22;3219;51.362;7.074;2023-04-06T10:24:28;14.40;84.80
6373;DHT22;3219;51.362;7.074;2023-04-06T10:26:58;14.30;85.10
6373;DHT22;3219;51.362;7.074;2023-04-06T10:29:27;14.40;86.20
6373;DHT22;3219;51.362;7.074;2023-04-06T10:31:54;14.50;86.40
6373;DHT22;3219;51.362;7.074;2023-04-06T10:34:21;14.50;87.00
6373;DHT22;3219;51.362;7.074;2023-04-06T10:36:48;14.50;85.90
6373;DHT22;3219;51.362;7.074;2023-04-06T10:39:24;14.50;87.00
6373;DHT22;3219;51.362;7.074;2023-04-06T10:41:51;14.60;87.60
6373;DHT22;3219;51.362;7.074;2023-04-06T10:44:20;14.70;88.20
6373;DHT22;3219;51.362;7.074;2023-04-06T10:46:55;14.80;89.00
6373;DHT22;3219;51.362;7.074;2023-04-06T10:49:22;14.80;88.40
6373;DHT22;3219;51.362;7.074;2023-04-06T10:51:51;14.90;88.40
6373;DHT22;3219;51.362;7.074;2023-04-06T10:54:20;15.00;88.40
6373;DHT22;3219;51.362;7.074;2023-04-06T10:56:48;15.20;85.90
6373;DHT22;3219;51.362;7.074;2023-04-06T10:59:18;15.20;85.30
6373;DHT22;3219;51.362;7.074;2023-04-06T11:01:45;15.10;86.90
6373;DHT22;3219;51.362;7.074;2023-04-06T11:04:17;15.00;88.70
6373;DHT22;3219;51.362;7.074;2023-04-06T11:06:47;15.00;86.70
6373;DHT22;3219;51.362;7.074;2023-04-06T11:09:23;15.10;85.50
6373;DHT22;3219;51.362;7.074;2023-04-06T11:11:51;14.90;89.70
6373;DHT22;3219;51.362;7.074;2023-04-06T11:14:18;14.90;87.20
6373;DHT22;3219;51.362;7.074;2023-04-06T11:16:46;14.80;87.30
6373;DHT22;3219;51.362;7.074;2023-04-06T11:19:14;14.80;88.00
6373;DHT22;3219;51.362;7.074;2023-04-06T11:21:43;14.80;88.40
6373;DHT22;3219;51.362;7.074;2023-04-06T11:24:13;14.80;88.30
6373;DHT22;3219;51.362;7.074;2023-04-06T11:26:42;14.80;87.50
6373;DHT22;3219;51.362;7.074;2023-04-06T11:29:10;14.70;89.00
6373;DHT22;3219;51.362;7.074;2023-04-06T11:31:41;14.60;89.80
6373;DHT22;3219;51.362;7.074;2023-04-06T11:34:12;14.50;90.10
6373;DHT22;3219;51.362;7.074;2023-04-06T11:36:44;14.60;90.60
6373;DHT22;3219;51.362;7.074;2023-04-06T11:39:11;14.70;90.20
6373;DHT22;3219;51.362;7.074;2023-04-06T11:41:38;14.70;90.50
6373;DHT22;3219;51.362;7.074;2023-04-06T11:44:05;14.70;91.50
6373;DHT22;3219;51.362;7.074;2023-04-06T11:46:32;14.20;91.90
6373;DHT22;3219;51.362;7.074;2023-04-06T11:49:00;14.60;90.30
6373;DHT22;3219;51.362;7.074;2023-04-06T11:51:27;14.70;90.10
6373;DHT22;3219;51.362;7.074;2023-04-06T11:53:55;14.70;90.30
6373;DHT22;3219;51.362;7.074;2023-04-06T11:56:27;14.60;91.20
6373;DHT22;3219;51.362;7.074;2023-04-06T11:58:54;14.70;91.90
6373;DHT22;3219;51.362;7.074;2023-04-06T12:01:21;14.70;91.20
6373;DHT22;3219;51.362;7.074;2023-04-06T12:03:48;14.50;91.30
6373;DHT22;3219;51.362;7.074;2023-04-06T12:06:15;14.30;92.00
6373;DHT22;3219;51.362;7.074;2023-04-06T12:08:42;14.30;91.20
6373;DHT22;3219;51.362;7.074;2023-04-06T12:11:11;14.30;91.50
6373;DHT22;3219;51.362;7.074;2023-04-06T12:13:38;14.30;91.10
6373;DHT22;3219;51.362;7.074;2023-04-06T12:16:05;14.40;90.90
6373;DHT22;3219;51.362;7.074;2023-04-06T12:18:32;14.20;90.70
6373;DHT22;3219;51.362;7.074;2023-04-06T12:20:59;14.20;91.20
6373;DHT22;3219;51.362;7.074;2023-04-06T12:23:25;14.30;91.60
6373;DHT22;3219;51.362;7.074;2023-04-06T12:25:52;14.20;91.20
6373;DHT22;3219;51.362;7.074;2023-04-06T12:28:21;14.20;91.50
6373;DHT22;3219;51.362;7.074;2023-04-06T12:30:52;14.20;91.80
6373;DHT22;3219;51.362;7.074;2023-04-06T12:33:20;14.20;92.50
6373;DHT22;3219;51.362;7.074;2023-04-06T12:35:47;14.20;92.50
6373;DHT22;3219;51.362;7.074;2023-04-06T12:38:14;14.20;92.20
6373;DHT22;3219;51.362;7.074;2023-04-06T12:40:41;14.20;92.40
6373;DHT22;3219;51.362;7.074;2023-04-06T12:43:08;14.10;92.60
6373;DHT22;3219;51.362;7.074;2023-04-06T12:45:36;14.00;92.90
6373;DHT22;3219;51.362;7.074;2023-04-06T12:48:03;13.90;93.30
6373;DHT22;3219;51.362;7.074;2023-04-06T12:50:30;13.80;93.10
6373;DHT22;3219;51.362;7.074;2023-04-06T12:52:57;13.70;92.60
6373;DHT22;3219;51.362;7.074;2023-04-06T12:55:24;13.70;92.70
6373;DHT22;3219;51.362;7.074;2023-04-06T12:57:51;13.70;93.00
6373;DHT22;3219;51.362;7.074;2023-04-06T13:00:19;13.70;93.20
6373;DHT22;3219;51.362;7.074;2023-04-06T13:02:48;13.60;93.40
6373;DHT22;3219;51.362;7.074;2023-04-06T13:05:15;13.60;93.70
6373;DHT22;3219;51.362;7.074;2023-04-06T13:07:44;13.60;93.40
6373;DHT22;3219;51.362;7.074;2023-04-06T13:10:12;13.70;93.70
6373;DHT22;3219;51.362;7.074;2023-04-06T13:12:38;13.70;94.00
6373;DHT22;3219;51.362;7.074;2023-04-06T13:15:06;13.60;93.70
6373;DHT22;3219;51.362;7.074;2023-04-06T13:17:33;13.60;93.70
6373;DHT22;3219;51.362;7.074;2023-04-06T13:20:01;13.60;94.10
6373;DHT22;3219;51.362;7.074;2023-04-06T13:22:29;13.60;94.50
6373;DHT22;3219;51.362;7.074;2023-04-06T13:24:55;13.50;94.30
6373;DHT22;3219;51.362;7.074;2023-04-06T13:27:22;13.40;94.20
6373;DHT22;3219;51.362;7.074;2023-04-06T13:29:49;13.40;95.30
6373;DHT22;3219;51.362;7.074;2023-04-06T13:32:15;13.40;95.30
6373;DHT22;3219;51.362;7.074;2023-04-06T13:34:42;13.40;95.30
6373;DHT22;3219;51.362;7.074;2023-04-06T13:37:11;13.40;94.80
6373;DHT22;3219;51.362;7.074;2023-04-06T13:39:38;13.40;94.90
6373;DHT22;3219;51.362;7.074;2023-04-06T13:42:05;13.40;94.70
6373;DHT22;3219;51.362;7.074;2023-04-06T13:44:33;13.40;95.00
6373;DHT22;3219;51.362;7.074;2023-04-06T13:46:59;13.30;94.40
6373;DHT22;3219;51.362;7.074;2023-04-06T13:49:26;13.30;94.60
6373;DHT22;3219;51.362;7.074;2023-04-06T13:51:53;13.30;94.90
6373;DHT22;3219;51.362;7.074;2023-04-06T13:54:21;13.20;95.40
6373;DHT22;3219;51.362;7.074;2023-04-06T13:56:48;13.20;95.50
6373;DHT22;3219;51.362;7.074;2023-04-06T13:59:14;13.10;96.00
6373;DHT22;3219;51.362;7.074;2023-04-06T14:01:41;13.10;95.80
6373;DHT22;3219;51.362;7.074;2023-04-06T14:04:08;13.00;95.90
6373;DHT22;3219;51.362;7.074;2023-04-06T14:06:35;13.00;96.30
6373;DHT22;3219;51.362;7.074;2023-04-06T14:09:01;13.00;96.80
6373;DHT22;3219;51.362;7.074;2023-04-06T14:11:31;13.00;96.40
6373;DHT22;3219;51.362;7.074;2023-04-06T14:13:58;12.90;96.80
6373;DHT22;3219;51.362;7.074;2023-04-06T14:16:25;12.90;97.60
6373;DHT22;3219;51.362;7.074;2023-04-06T14:18:52;12.80;96.50
6373;DHT22;3219;51.362;7.074;2023-04-06T14:21:19;12.70;96.30
6373;DHT22;3219;51.362;7.074;2023-04-06T14:23:45;12.60;96.30
6373;DHT22;3219;51.362;7.074;2023-04-06T14:26:12;12.70;96.80
6373;DHT22;3219;51.362;7.074;2023-04-06T14:28:41;12.60;96.80
6373;DHT22;3219;51.362;7.074;2023-04-06T14:31:12;12.50;97.60
6373;DHT22;3219;51.362;7.074;2023-04-06T14:33:40;12.40;98.60
6373;DHT22;3219;51.362;7.074;2023-04-06T14:36:07;12.40;99.50
6373;DHT22;3219;51.362;7.074;2023-04-06T14:38:34;12.30;99.50
6373;DHT22;3219;51.362;7.074;2023-04-06T14:41:01;12.20;97.20
6373;DHT22;3219;51.362;7.074;2023-04-06T14:43:28;12.20;97.40
6373;DHT22;3219;51.362;7.074;2023-04-06T14:45:59;12.10;97.50
6373;DHT22;3219;51.362;7.074;2023-04-06T14:48:26;12.00;97.90
6373;DHT22;3219;51.362;7.074;2023-04-06T14:50:53;12.00;98.20
6373;DHT22;3219;51.362;7.074;2023-04-06T14:53:22;11.90;98.10
6373;DHT22;3219;51.362;7.074;2023-04-06T14:55:48;11.90;98.00
6373;DHT22;3219;51.362;7.074;2023-04-06T14:58:17;11.90;98.30
6373;DHT22;3219;51.362;7.074;2023-04-06T15:00:44;11.90;98.70
6373;DHT22;3219;51.362;7.074;2023-04-06T15:03:12;11.90;99.10
6373;DHT22;3219;51.362;7.074;2023-04-06T15:05:39;11.90;99.80
6373;DHT22;3219;51.362;7.074;2023-04-06T15:08:06;11.90;99.90
6373;DHT22;3219;51.362;7.074;2023-04-06T15:10:35;11.90;99.80
6373;DHT22;3219;51.362;7.074;2023-04-06T15:13:01;11.90;99.30
6373;DHT22;3219;51.362;7.074;2023-04-06T15:15:28;11.80;99.40
6373;DHT22;3219;51.362;7.074;2023-04-06T15:17:55;11.90;99.30
6373;DHT22;3219;51.362;7.074;2023-04-06T15:20:23;11.90;98.50
6373;DHT22;3219;51.362;7.074;2023-04-06T15:22:50;11.90;97.80
6373;DHT22;3219;51.362;7.074;2023-04-06T15:25:17;11.90;98.30
6373;DHT22;3219;51.362;7.074;2023-04-06T15:27:44;11.80;98.90
6373;DHT22;3219;51.362;7.074;2023-04-06T15:30:11;11.80;98.90
6373;DHT22;3219;51.362;7.074;2023-04-06T15:32:38;11.70;99.00
6373;DHT22;3219;51.362;7.074;2023-04-06T15:35:11;11.60;99.00
6373;DHT22;3219;51.362;7.074;2023-04-06T15:37:39;11.50;99.50
6373;DHT22;3219;51.362;7.074;2023-04-06T15:40:08;11.40;99.90
6373;DHT22;3219;51.362;7.074;2023-04-06T15:42:38;11.30;99.90
6373;DHT22;3219;51.362;7.074;2023-04-06T15:45:06;11.10;99.90
6373;DHT22;3219;51.362;7.074;2023-04-06T15:47:33;11.00;99.90
6373;DHT22;3219;51.362;7.074;2023-04-06T15:50:00;10.90;99.90
6373;DHT22;3219;51.362;7.074;2023-04-06T15:52:26;10.70;99.90
6373;DHT22;3219;51.362;7.074;2023-04-06T15:54:55;10.60;99.90
6373;DHT22;3219;51.362;7.074;2023-04-06T15:57:21;10.50;99.90
6373;DHT22;3219;51.362;7.074;2023-04-06T15:59:48;10.40;99.90
6373;DHT22;3219;51.362;7.074;2023-04-06T16:02:15;10.30;99.90
6373;DHT22;3219;51.362;7.074;2023-04-06T16:04:42;10.20;99.90
6373;DHT22;3219;51.362;7.074;2023-04-06T16:07:09;10.20;99.90
6373;DHT22;3219;51.362;7.074;2023-04-06T16:09:35;10.10;99.90